Time;durP1;ratioP1;P1;durP2;ratioP2;P2;SDS_P1;SDS_P2;PMS_P1;PMS_P2;Temp;Humidity;BMP_temperature;BMP_pressure;BME280_temperature;BME280_humidity;BME280_pressure;Samples;Min_cycle;Max_cycle;Signal;HPM_P1;HPM_P2
2022/08/14 00:00:53;;;;;;;10.83;8.13;;;21.20;99.90;;;;;;5066948;28;20458;-73
2022/08/14 00:03:23;;;;;;;9.50;8.50;;;21.20;99.90;;;;;;5058773;28;20511;-73
2022/08/14 00:05:50;;;;;;;8.63;7.80;;;21.20;99.90;;;;;;5053369;28;20944;-73
2022/08/14 00:08:17;;;;;;;11.33;8.30;;;21.10;99.90;;;;;;5055096;28;20441;-73
2022/08/14 00:10:44;;;;;;;9.23;8.27;;;21.10;99.90;;;;;;5053617;28;20452;-73
2022/08/14 00:13:11;;;;;;;10.00;8.10;;;21.10;99.90;;;;;;5053376;28;20498;-72
2022/08/14 00:15:40;;;;;;;10.27;8.23;;;21.00;99.90;;;;;;5054474;28;21033;-72
2022/08/14 00:18:09;;;;;;;9.40;8.40;;;21.00;99.90;;;;;;5060250;28;20476;-72
2022/08/14 00:20:40;;;;;;;8.77;7.97;;;21.00;99.90;;;;;;5054165;28;20448;-73
2022/08/14 00:23:09;;;;;;;15.87;9.60;;;21.00;99.90;;;;;;5056998;28;20534;-73
2022/08/14 00:25:36;;;;;;;11.20;9.20;;;20.90;99.90;;;;;;5065576;28;21195;-73
2022/08/14 00:28:04;;;;;;;13.50;8.40;;;20.80;99.90;;;;;;5064713;28;21263;-72
2022/08/14 00:30:31;;;;;;;9.03;8.20;;;20.90;99.90;;;;;;5054030;28;20448;-73
2022/08/14 00:32:57;;;;;;;10.63;8.30;;;20.90;99.90;;;;;;5053057;28;20880;-73
2022/08/14 00:35:24;;;;;;;9.90;9.00;;;20.80;99.90;;;;;;5054501;28;20448;-73
2022/08/14 00:37:52;;;;;;;9.80;8.33;;;20.70;99.90;;;;;;5053146;28;20480;-73
2022/08/14 00:40:20;;;;;;;9.73;8.57;;;20.70;99.90;;;;;;5056095;28;20505;-73
2022/08/14 00:42:47;;;;;;;10.40;9.27;;;20.70;99.90;;;;;;5062728;28;20472;-72
2022/08/14 00:45:15;;;;;;;9.77;8.33;;;20.70;99.90;;;;;;5054213;28;20464;-72
2022/08/14 00:47:44;;;;;;;15.30;8.90;;;20.60;99.90;;;;;;5066727;28;20512;-72
2022/08/14 00:50:13;;;;;;;10.07;9.07;;;20.60;99.90;;;;;;5057460;28;20449;-72
2022/08/14 00:52:40;;;;;;;11.47;8.50;;;20.50;99.90;;;;;;5069878;28;20471;-73
2022/08/14 00:55:09;;;;;;;10.60;9.60;;;20.50;99.90;;;;;;5072155;28;20497;-72
2022/08/14 00:57:36;;;;;;;10.50;9.33;;;20.40;99.90;;;;;;5074131;28;20479;-72
2022/08/14 01:00:11;;;;;;;13.17;9.17;;;20.30;99.90;;;;;;5073989;28;20460;-73
2022/08/14 01:02:40;;;;;;;12.87;9.20;;;20.30;99.90;;;;;;5067279;28;20476;-72
2022/08/14 01:05:22;;;;;;;13.60;9.43;;;20.30;99.90;;;;;;5063695;28;20451;-73
2022/08/14 01:07:50;;;;;;;10.90;9.80;;;20.30;99.90;;;;;;5058939;28;20459;-73
2022/08/14 01:10:18;;;;;;;10.87;9.77;;;20.30;99.90;;;;;;5054222;28;20961;-73
2022/08/14 01:12:47;;;;;;;11.97;10.10;;;20.20;99.90;;;;;;5062029;28;20472;-73
2022/08/14 01:15:18;;;;;;;11.07;9.87;;;20.20;99.90;;;;;;5063331;28;20456;-72
2022/08/14 01:23:18;;;;;;;13.47;9.60;;;20.20;99.90;;;;;;5064548;28;20582;-72
2022/08/14 01:25:46;;;;;;;10.20;9.13;;;20.20;99.90;;;;;;5056367;28;20450;-73
2022/08/14 01:28:13;;;;;;;12.20;10.00;;;20.10;99.90;;;;;;5053956;28;20807;-72
2022/08/14 01:30:42;;;;;;;11.27;8.97;;;20.10;99.90;;;;;;5059146;28;20452;-73
2022/08/14 01:33:11;;;;;;;10.10;8.97;;;20.10;99.90;;;;;;5072118;28;20423;-73
2022/08/14 01:35:39;;;;;;;10.40;8.87;;;20.10;99.90;;;;;;5054105;28;20462;-72
2022/08/14 01:38:06;;;;;;;11.73;9.07;;;20.10;99.90;;;;;;5053778;28;20480;-72
2022/08/14 01:40:34;;;;;;;10.03;9.10;;;20.10;99.90;;;;;;5053580;28;20423;-72
2022/08/14 01:43:01;;;;;;;10.60;8.87;;;20.10;99.90;;;;;;5053959;28;20448;-73
2022/08/14 01:45:28;;;;;;;10.10;9.00;;;20.00;99.90;;;;;;5053977;28;20453;-73
2022/08/14 01:47:55;;;;;;;10.27;9.17;;;20.00;99.90;;;;;;5053849;28;20449;-72
2022/08/14 01:50:21;;;;;;;9.70;8.70;;;19.90;99.90;;;;;;5063867;28;20479;-72
2022/08/14 01:52:48;;;;;;;10.73;9.57;;;19.90;99.90;;;;;;5072941;28;20467;-73
2022/08/14 01:55:16;;;;;;;10.33;9.33;;;19.90;99.90;;;;;;5071497;28;20924;-72
2022/08/14 01:57:45;;;;;;;11.67;9.90;;;19.80;99.90;;;;;;5073247;28;20494;-73
2022/08/14 02:00:15;;;;;;;11.23;9.60;;;19.80;99.90;;;;;;5058001;28;20514;-73
2022/08/14 02:02:42;;;;;;;11.17;9.60;;;19.80;99.90;;;;;;5055263;28;20481;-73
2022/08/14 02:05:11;;;;;;;11.60;9.90;;;19.80;99.90;;;;;;5053396;28;20452;-72
2022/08/14 02:07:38;;;;;;;10.97;9.87;;;19.80;99.90;;;;;;5053213;28;20447;-73
2022/08/14 02:10:06;;;;;;;10.40;9.30;;;19.80;99.90;;;;;;5068915;28;20940;-73
2022/08/14 02:12:33;;;;;;;11.40;9.50;;;19.80;99.90;;;;;;5072463;28;20971;-72
2022/08/14 02:15:01;;;;;;;10.60;9.60;;;19.80;99.90;;;;;;5072765;28;21008;-73
2022/08/14 02:17:29;;;;;;;11.00;10.00;;;19.80;99.90;;;;;;5072287;28;20472;-73
2022/08/14 02:19:56;;;;;;;11.10;10.00;;;19.70;99.90;;;;;;5057763;28;20510;-73
2022/08/14 02:22:22;;;;;;;10.80;9.57;;;19.70;99.90;;;;;;5052900;28;20534;-72
2022/08/14 02:24:50;;;;;;;12.60;10.33;;;19.70;99.90;;;;;;5053252;28;20448;-73
2022/08/14 02:27:17;;;;;;;10.47;9.47;;;19.70;99.90;;;;;;5052876;28;20559;-72
2022/08/14 02:29:44;;;;;;;11.10;10.00;;;19.60;99.90;;;;;;5065518;28;20439;-73
2022/08/14 02:32:12;;;;;;;11.20;10.10;;;19.60;99.90;;;;;;5071632;28;20471;-72
2022/08/14 02:34:38;;;;;;;11.03;9.97;;;19.60;99.90;;;;;;5059927;28;20473;-72
2022/08/14 02:37:09;;;;;;;11.13;10.03;;;19.50;99.90;;;;;;5052967;28;20483;-73
2022/08/14 02:39:38;;;;;;;13.23;10.73;;;19.50;99.90;;;;;;5064599;28;20775;-72
2022/08/14 02:42:07;;;;;;;11.97;10.53;;;19.40;99.90;;;;;;5056352;28;20468;-73
2022/08/14 02:44:33;;;;;;;12.17;10.97;;;19.40;99.90;;;;;;5070570;28;20467;-73
2022/08/14 02:47:01;;;;;;;15.47;10.47;;;19.40;99.90;;;;;;5052582;28;20513;-73
2022/08/14 02:49:29;;;;;;;23.33;11.60;;;19.30;99.90;;;;;;5052763;28;20506;-73
2022/08/14 02:51:57;;;;;;;11.80;10.47;;;19.30;99.90;;;;;;5052896;28;20538;-73
2022/08/14 02:54:26;;;;;;;12.50;11.30;;;19.30;99.90;;;;;;5052353;28;20475;-72
2022/08/14 02:56:53;;;;;;;12.53;11.23;;;19.30;99.90;;;;;;5052364;28;20467;-72
2022/08/14 02:59:21;;;;;;;12.67;10.87;;;19.30;99.90;;;;;;5052233;28;20820;-72
2022/08/14 03:01:49;;;;;;;12.57;11.00;;;19.40;99.90;;;;;;5052207;28;20444;-72
2022/08/14 03:04:16;;;;;;;11.53;10.40;;;19.30;99.90;;;;;;5070614;28;20451;-73
2022/08/14 03:06:46;;;;;;;17.60;11.20;;;19.30;99.90;;;;;;5070297;28;20942;-72
2022/08/14 03:09:12;;;;;;;14.80;11.47;;;19.30;99.90;;;;;;5071495;28;20422;-73
2022/08/14 03:11:41;;;;;;;13.13;11.60;;;19.20;99.90;;;;;;5051774;28;20497;-73
2022/08/14 03:14:10;;;;;;;12.77;11.47;;;19.10;99.90;;;;;;5051910;28;20467;-73
2022/08/14 03:16:37;;;;;;;12.67;11.43;;;19.00;99.90;;;;;;5055063;28;20471;-73
2022/08/14 03:19:06;;;;;;;13.80;12.40;;;18.90;99.90;;;;;;5071121;28;20450;-72
2022/08/14 03:21:33;;;;;;;15.30;11.97;;;18.90;99.90;;;;;;5060652;28;20477;-72
2022/08/14 03:24:08;;;;;;;15.20;12.10;;;18.90;99.90;;;;;;5053118;28;20456;-72
2022/08/14 03:26:36;;;;;;;16.97;12.73;;;18.90;99.90;;;;;;5058121;28;20459;-72
2022/08/14 03:29:03;;;;;;;14.60;12.63;;;18.90;99.90;;;;;;5070573;28;20841;-73
2022/08/14 03:31:30;;;;;;;17.70;12.60;;;18.90;99.90;;;;;;5061360;28;20526;-73
2022/08/14 03:33:58;;;;;;;13.97;12.30;;;18.90;99.90;;;;;;5051845;28;20518;-73
2022/08/14 03:36:25;;;;;;;15.87;11.87;;;18.80;99.90;;;;;;5051752;28;20934;-73
2022/08/14 03:38:54;;;;;;;13.73;12.33;;;18.80;99.90;;;;;;5055894;28;20499;-72
2022/08/14 03:41:24;;;;;;;14.23;11.93;;;18.80;99.90;;;;;;5070510;28;20982;-73
2022/08/14 03:43:54;;;;;;;18.70;12.10;;;18.80;99.90;;;;;;5059852;28;20480;-72
2022/08/14 03:46:21;;;;;;;12.63;11.33;;;18.80;99.90;;;;;;5070966;28;20422;-73
2022/08/14 03:48:48;;;;;;;13.57;11.67;;;18.80;99.90;;;;;;5067415;28;21020;-73
2022/08/14 03:51:15;;;;;;;14.10;11.80;;;18.80;99.90;;;;;;5051466;28;20529;-73
2022/08/14 03:53:45;;;;;;;16.40;12.17;;;18.90;99.90;;;;;;5051391;28;20455;-72
2022/08/14 03:56:14;;;;;;;13.80;12.27;;;18.90;99.90;;;;;;5066179;28;20993;-73
2022/08/14 03:58:45;;;;;;;14.60;12.30;;;18.90;99.90;;;;;;5068486;28;20544;-73
2022/08/14 04:01:12;;;;;;;12.90;11.53;;;18.80;99.90;;;;;;5064316;28;20468;-72
2022/08/14 04:03:39;;;;;;;11.80;10.47;;;18.90;99.90;;;;;;5052811;28;20459;-69
2022/08/14 04:06:07;;;;;;;13.40;11.90;;;18.90;99.90;;;;;;5064831;28;20443;-69
2022/08/14 04:08:35;;;;;;;12.83;9.90;;;18.90;99.90;;;;;;5068894;28;20471;-69
2022/08/14 04:11:01;;;;;;;12.93;11.47;;;19.00;99.90;;;;;;5051219;28;20803;-69
2022/08/14 04:13:29;;;;;;;12.70;11.40;;;19.10;99.90;;;;;;5051376;28;20427;-69
2022/08/14 04:15:57;;;;;;;15.40;11.50;;;19.20;99.90;;;;;;5051670;28;20438;-69
2022/08/14 04:18:23;;;;;;;14.30;11.90;;;19.30;99.90;;;;;;5051089;28;20454;-69
2022/08/14 04:20:50;;;;;;;14.00;11.20;;;19.40;99.90;;;;;;5070079;28;20418;-69
2022/08/14 04:23:17;;;;;;;14.03;12.50;;;19.50;99.90;;;;;;5060923;28;20935;-69
2022/08/14 04:25:44;;;;;;;13.80;10.90;;;19.50;99.90;;;;;;5051377;28;20442;-69
2022/08/14 04:28:12;;;;;;;13.37;12.03;;;19.50;99.90;;;;;;5051125;28;20950;-69
2022/08/14 04:30:38;;;;;;;15.07;12.20;;;19.50;99.90;;;;;;5054670;28;20448;-69
2022/08/14 04:33:08;;;;;;;15.07;12.43;;;19.40;99.90;;;;;;5074667;28;20417;-69
2022/08/14 04:35:35;;;;;;;12.27;11.00;;;19.40;99.90;;;;;;5073784;28;20425;-68
2022/08/14 04:43:38;;;;;;;12.33;10.30;;;19.40;99.90;;;;;;5055965;28;20459;-69
2022/08/14 04:46:07;;;;;;;13.13;11.80;;;19.50;99.90;;;;;;5055043;28;21016;-69
2022/08/14 04:48:35;;;;;;;14.10;12.60;;;19.50;99.90;;;;;;5056032;28;20478;-69
2022/08/14 04:51:04;;;;;;;13.80;12.40;;;19.50;99.90;;;;;;5054643;28;20477;-69
2022/08/14 04:53:32;;;;;;;15.37;12.50;;;19.40;99.90;;;;;;5062205;28;20952;-69
2022/08/14 04:55:59;;;;;;;13.60;12.10;;;19.40;99.90;;;;;;5073585;28;20438;-69
2022/08/14 04:58:29;;;;;;;12.80;11.60;;;19.30;99.90;;;;;;5073430;28;20454;-69
2022/08/14 05:00:58;;;;;;;14.63;13.13;;;19.30;99.90;;;;;;5060446;28;20467;-69
2022/08/14 05:03:27;;;;;;;14.93;12.70;;;19.30;99.90;;;;;;5065347;28;20427;-68
2022/08/14 05:05:57;;;;;;;15.77;14.07;;;19.30;99.90;;;;;;5062450;28;20922;-69
2022/08/14 05:08:24;;;;;;;14.80;12.70;;;19.30;99.90;;;;;;5073991;28;20467;-69
2022/08/14 05:10:53;;;;;;;15.23;12.93;;;19.40;99.90;;;;;;5057050;28;20420;-69
2022/08/14 05:13:21;;;;;;;14.47;12.97;;;19.40;99.90;;;;;;5074245;28;20517;-69
2022/08/14 05:15:48;;;;;;;14.27;12.43;;;19.60;99.90;;;;;;5073484;28;20499;-69
2022/08/14 05:18:16;;;;;;;14.20;12.67;;;19.60;99.90;;;;;;5073838;28;20479;-69
2022/08/14 05:20:45;;;;;;;14.50;13.10;;;19.70;99.90;;;;;;5072665;28;20516;-69
2022/08/14 05:23:15;;;;;;;22.73;13.33;;;19.90;99.90;;;;;;5062930;28;20455;-69
2022/08/14 05:25:42;;;;;;;14.30;12.87;;;19.90;99.90;;;;;;5058994;28;20550;-69
2022/08/14 05:28:10;;;;;;;12.80;11.60;;;20.00;99.90;;;;;;5054462;28;20423;-69
2022/08/14 05:30:38;;;;;;;15.70;11.90;;;20.00;99.90;;;;;;5058619;28;20434;-69
2022/08/14 05:33:04;;;;;;;15.90;13.17;;;20.10;99.90;;;;;;5062360;28;20522;-69
2022/08/14 05:35:32;;;;;;;14.10;12.67;;;20.20;99.90;;;;;;5053937;28;20435;-69
2022/08/14 05:37:59;;;;;;;14.33;12.90;;;20.30;99.90;;;;;;5054184;28;20431;-69
2022/08/14 05:40:27;;;;;;;15.50;12.80;;;20.40;99.90;;;;;;5053155;28;20454;-69
2022/08/14 05:42:53;;;;;;;13.87;12.57;;;20.40;99.90;;;;;;5062272;28;20475;-69
2022/08/14 05:45:20;;;;;;;15.63;13.93;;;20.60;99.90;;;;;;5069222;28;20494;-69
2022/08/14 05:47:47;;;;;;;14.73;12.93;;;20.80;99.90;;;;;;5053772;28;20514;-69
2022/08/14 05:52:08;;;;;;;16.57;12.97;;;21.10;99.90;;;;;;5088223;28;20571;-69
2022/08/14 05:54:35;;;;;;;13.53;12.03;;;21.50;99.90;;;;;;5086661;28;20501;-70
2022/08/14 05:57:02;;;;;;;21.90;14.40;;;21.70;99.90;;;;;;5087966;28;20948;-70
2022/08/14 05:59:28;;;;;;;15.87;13.30;;;21.90;99.90;;;;;;5081056;28;20448;-69
2022/08/14 06:01:55;;;;;;;16.20;12.47;;;22.20;99.90;;;;;;5071586;28;20983;-70
2022/08/14 06:04:22;;;;;;;13.23;11.63;;;22.40;99.90;;;;;;5060538;28;20422;-70
2022/08/14 06:06:48;;;;;;;14.60;12.93;;;22.70;99.90;;;;;;5083621;28;20440;-70
2022/08/14 06:09:16;;;;;;;18.23;12.50;;;23.10;99.90;;;;;;5087480;28;20460;-70
2022/08/14 06:11:43;;;;;;;13.40;11.93;;;23.30;99.90;;;;;;5086839;28;20983;-70
2022/08/14 06:14:10;;;;;;;13.47;12.13;;;23.50;99.90;;;;;;5068546;28;20543;-68
2022/08/14 06:16:37;;;;;;;14.20;12.70;;;23.80;99.90;;;;;;5068244;28;20878;-67
2022/08/14 06:19:05;;;;;;;13.33;12.03;;;24.10;99.90;;;;;;5077239;28;20505;-67
2022/08/14 06:21:32;;;;;;;14.33;12.00;;;24.40;99.90;;;;;;5075897;28;20471;-67
2022/08/14 06:23:58;;;;;;;13.47;11.83;;;24.60;99.90;;;;;;5083500;28;20816;-67
2022/08/14 06:26:26;;;;;;;12.90;11.30;;;24.80;99.90;;;;;;5070608;28;20453;-67
2022/08/14 06:28:53;;;;;;;13.87;12.47;;;24.90;99.90;;;;;;5068223;28;20551;-67
2022/08/14 06:31:20;;;;;;;12.07;10.82;;;25.10;99.90;;;;;;5069032;28;20487;-67
2022/08/14 06:33:46;;;;;;;15.33;11.80;;;25.10;99.90;;;;;;5067920;28;20206;-67
2022/08/14 06:36:13;;;;;;;12.43;11.33;;;25.10;99.90;;;;;;5068262;28;20502;-67
2022/08/14 06:38:39;;;;;;;12.30;11.10;;;25.10;99.90;;;;;;5069592;28;20525;-67
2022/08/14 06:41:06;;;;;;;11.00;9.90;;;25.10;99.90;;;;;;5082751;28;20925;-68
2022/08/14 06:43:34;;;;;;;15.00;11.70;;;25.20;99.90;;;;;;5085827;28;20875;-69
2022/08/14 06:46:01;;;;;;;14.23;11.10;;;25.30;99.90;;;;;;5079582;28;20479;-69
2022/08/14 06:48:28;;;;;;;12.30;11.00;;;25.30;99.90;;;;;;5079992;28;20514;-69
2022/08/14 06:50:55;;;;;;;13.40;11.70;;;25.20;99.90;;;;;;5080607;28;21062;-69
2022/08/14 06:53:23;;;;;;;13.60;11.40;;;25.30;99.90;;;;;;5067627;28;20460;-70
2022/08/14 06:55:49;;;;;;;12.17;10.40;;;25.30;99.90;;;;;;5067486;28;20468;-69
2022/08/14 06:58:18;;;;;;;12.90;11.60;;;25.40;99.90;;;;;;5075218;28;20557;-70
2022/08/14 07:06:13;;;;;;;15.47;12.20;;;25.60;99.90;;;;;;5054144;28;20448;-71
2022/08/14 07:08:41;;;;;;;14.00;11.40;;;25.70;99.90;;;;;;5059536;28;20553;-72
2022/08/14 07:11:08;;;;;;;12.70;11.50;;;25.70;99.90;;;;;;5050428;28;20488;-72
2022/08/14 07:13:34;;;;;;;12.60;11.30;;;25.90;99.90;;;;;;5050986;28;20441;-72
2022/08/14 07:16:04;;;;;;;13.47;10.67;;;25.90;99.90;;;;;;5050472;28;20457;-72
2022/08/14 07:18:32;;;;;;;15.33;10.40;;;26.00;99.90;;;;;;5050391;28;20453;-72
2022/08/14 07:21:00;;;;;;;12.47;10.40;;;26.10;99.90;;;;;;5050294;28;20461;-72
2022/08/14 07:23:27;;;;;;;12.57;11.13;;;26.20;99.90;;;;;;5050496;28;20490;-71
2022/08/14 07:25:56;;;;;;;14.67;11.00;;;26.30;99.90;;;;;;5050123;28;20539;-71
2022/08/14 07:28:25;;;;;;;12.53;11.33;;;26.40;99.90;;;;;;5050617;28;20465;-72
2022/08/14 07:30:56;;;;;;;11.43;10.33;;;26.50;99.90;;;;;;5050443;28;20489;-74
2022/08/14 07:33:26;;;;;;;12.40;11.10;;;26.50;99.90;;;;;;5050331;28;20457;-74
2022/08/14 07:35:53;;;;;;;11.63;10.53;;;26.40;99.90;;;;;;5050831;28;20875;-75
2022/08/14 07:38:22;;;;;;;11.43;10.33;;;26.20;99.90;;;;;;5050649;28;20444;-75
2022/08/14 07:40:51;;;;;;;15.02;11.10;;;26.10;99.90;;;;;;5049710;28;20491;-74
2022/08/14 07:43:18;;;;;;;14.23;10.77;;;26.20;99.90;;;;;;5050278;28;20256;-75
2022/08/14 07:45:46;;;;;;;12.40;10.57;;;26.40;99.90;;;;;;5049973;28;20511;-75
2022/08/14 07:48:13;;;;;;;11.80;10.60;;;26.60;99.90;;;;;;5050516;28;20457;-75
2022/08/14 07:50:41;;;;;;;13.20;11.80;;;26.70;99.90;;;;;;5049792;28;20514;-74
2022/08/14 07:53:07;;;;;;;10.80;9.80;;;26.90;99.90;;;;;;5049234;28;20453;-74
2022/08/14 07:55:35;;;;;;;13.43;10.57;;;27.00;99.90;;;;;;5049885;28;20453;-74
2022/08/14 07:58:02;;;;;;;11.57;9.80;;;27.10;99.90;;;;;;5049976;28;20503;-75
2022/08/14 08:00:29;;;;;;;11.63;9.87;;;27.20;99.90;;;;;;5050211;28;20210;-75
2022/08/14 08:02:56;;;;;;;10.52;9.55;;;27.40;99.90;;;;;;5049857;28;20482;-75
2022/08/14 08:05:24;;;;;;;10.83;9.73;;;27.50;99.90;;;;;;5049706;28;20874;-75
2022/08/14 08:07:54;;;;;;;10.40;9.33;;;27.60;99.90;;;;;;5049265;28;20888;-74
2022/08/14 08:10:33;;;;;;;11.52;10.43;;;27.50;99.90;;;;;;5049361;28;20456;-74
2022/08/14 08:13:02;;;;;;;12.40;9.95;;;27.60;99.90;;;;;;5049254;28;20643;-74
2022/08/14 08:15:32;;;;;;;13.73;10.03;;;27.80;99.90;;;;;;5049180;28;20202;-75
2022/08/14 08:18:01;;;;;;;10.93;9.93;;;27.80;99.90;;;;;;5049442;28;20992;-75
2022/08/14 08:20:28;;;;;;;11.00;9.30;;;27.80;99.90;;;;;;5048579;28;20587;-75
2022/08/14 08:22:58;;;;;;;9.77;8.90;;;27.70;99.90;;;;;;5049443;28;20221;-76
2022/08/14 08:25:26;;;;;;;10.87;9.77;;;27.80;99.90;;;;;;5049707;28;20861;-76
2022/08/14 08:28:00;;;;;;;9.88;8.98;;;28.10;99.90;;;;;;5049211;28;20952;-75
2022/08/14 08:30:29;;;;;;;11.13;10.03;;;28.30;99.90;;;;;;5048589;28;20667;-76
2022/08/14 08:32:58;;;;;;;13.63;9.20;;;28.40;99.90;;;;;;5049128;28;20456;-76
2022/08/14 08:35:26;;;;;;;10.70;9.52;;;28.80;99.90;;;;;;5049125;28;20452;-76
2022/08/14 08:38:01;;;;;;;9.40;8.50;;;29.20;99.90;;;;;;5048975;28;20210;-76
2022/08/14 08:40:30;;;;;;;8.53;7.63;;;29.30;99.90;;;;;;5048751;28;20777;-76
2022/08/14 08:42:57;;;;;;;12.43;8.97;;;29.10;99.90;;;;;;5048913;28;20522;-73
2022/08/14 08:45:24;;;;;;;10.63;9.40;;;29.20;99.90;;;;;;5049120;28;21023;-72
2022/08/14 08:47:51;;;;;;;9.37;8.60;;;29.00;99.90;;;;;;5048743;28;20955;-73
2022/08/14 08:50:20;;;;;;;10.13;9.23;;;29.10;99.90;;;;;;5048634;28;20468;-71
2022/08/14 08:52:51;;;;;;;9.17;8.37;;;29.30;99.90;;;;;;5048375;28;20488;-74
2022/08/14 08:55:29;;;;;;;9.90;8.00;;;29.50;99.90;;;;;;5047849;28;20448;-73
2022/08/14 08:58:01;;;;;;;17.50;9.33;;;29.50;99.90;;;;;;5048356;28;20740;-75
2022/08/14 09:00:33;;;;;;;9.77;8.30;;;29.30;99.90;;;;;;5049038;28;20547;-73
2022/08/14 09:03:04;;;;;;;10.10;9.17;;;29.50;99.90;;;;;;5048686;28;20841;-75
2022/08/14 09:05:33;;;;;;;9.70;8.53;;;29.60;99.90;;;;;;5048880;28;20441;-75
2022/08/14 09:08:10;;;;;;;10.30;8.10;;;29.70;99.90;;;;;;5046913;28;20489;-76
2022/08/14 09:10:38;;;;;;;9.07;7.80;;;29.70;99.90;;;;;;5046477;28;20518;-75
2022/08/14 09:13:05;;;;;;;9.10;8.30;;;29.90;99.90;;;;;;5049170;28;20485;-74
2022/08/14 09:15:32;;;;;;;11.03;7.77;;;30.10;99.90;;;;;;5049099;28;20444;-75
2022/08/14 09:17:59;;;;;;;9.63;8.73;;;30.10;99.90;;;;;;5049391;28;20515;-75
2022/08/14 09:20:26;;;;;;;11.13;9.63;;;29.90;99.90;;;;;;5048706;28;20491;-75
2022/08/14 09:22:54;;;;;;;11.00;9.07;;;29.70;99.90;;;;;;5048914;28;20884;-76
2022/08/14 09:25:21;;;;;;;9.27;8.37;;;29.30;99.90;;;;;;5049079;28;20455;-76
2022/08/14 09:27:49;;;;;;;11.15;8.43;;;29.30;99.90;;;;;;5048532;28;20452;-75
2022/08/14 09:30:16;;;;;;;10.70;7.60;;;29.50;99.90;;;;;;5047483;28;20450;-75
2022/08/14 09:33:04;;;;;;;8.15;7.47;;;29.60;99.90;;;;;;5047885;28;21021;-75
2022/08/14 09:35:48;;;;;;;8.83;8.10;;;29.90;99.90;;;;;;5046407;28;20213;-76
2022/08/14 09:38:24;;;;;;;8.37;7.57;;;30.10;99.90;;;;;;5046333;28;20461;-75
2022/08/14 09:40:59;;;;;;;8.87;7.93;;;30.10;99.90;;;;;;5046467;28;20828;-76
2022/08/14 09:43:32;;;;;;;53.30;25.37;;;30.20;99.90;;;;;;5046052;28;20881;-76
2022/08/14 09:46:00;;;;;;;9.00;8.13;;;30.40;99.90;;;;;;5046586;28;21041;-76
2022/08/14 09:48:27;;;;;;;8.93;7.68;;;30.30;99.90;;;;;;5046324;28;20456;-76
2022/08/14 09:50:55;;;;;;;9.75;7.22;;;30.40;99.90;;;;;;5046067;28;20487;-74
2022/08/14 09:53:36;;;;;;;7.30;6.70;;;30.30;99.90;;;;;;5045052;28;21759;-75
2022/08/14 09:56:05;;;;;;;7.83;7.13;;;30.00;99.90;;;;;;5046074;28;20210;-75
2022/08/14 09:58:41;;;;;;;7.72;7.03;;;30.00;99.90;;;;;;5046293;28;20585;-73
2022/08/14 10:01:11;;;;;;;7.80;7.00;;;30.00;99.90;;;;;;5046488;28;20759;-74
2022/08/14 10:03:47;;;;;;;7.13;6.63;;;30.20;99.90;;;;;;5046426;28;20948;-74
2022/08/14 10:06:16;;;;;;;7.50;6.80;;;30.10;99.90;;;;;;5047989;28;20293;-73
2022/08/14 10:08:45;;;;;;;7.20;6.50;;;30.00;99.70;;;;;;5047628;28;20445;-73
2022/08/14 10:11:18;;;;;;;10.20;7.27;;;30.20;99.50;;;;;;5047658;28;20728;-73
2022/08/14 10:13:47;;;;;;;8.53;7.50;;;30.40;99.90;;;;;;5048366;28;20451;-73
2022/08/14 10:16:15;;;;;;;8.00;7.30;;;30.50;99.90;;;;;;5048766;28;20453;-73
2022/08/14 10:18:42;;;;;;;8.38;7.15;;;30.60;99.60;;;;;;5049591;28;20479;-73
2022/08/14 10:21:16;;;;;;;7.47;6.87;;;30.70;98.70;;;;;;5048125;28;20309;-74
2022/08/14 10:23:48;;;;;;;7.80;7.00;;;30.70;99.00;;;;;;5048580;28;20447;-72
2022/08/14 10:26:17;;;;;;;7.47;6.87;;;30.60;99.00;;;;;;5049898;28;20211;-73
2022/08/14 10:28:49;;;;;;;6.90;6.30;;;30.50;98.50;;;;;;5048913;28;20454;-73
2022/08/14 10:31:18;;;;;;;7.57;6.77;;;30.60;98.30;;;;;;5048016;28;20887;-72
2022/08/14 10:33:57;;;;;;;7.87;7.17;;;30.60;97.90;;;;;;5046631;28;20441;-72
2022/08/14 10:36:26;;;;;;;7.90;7.10;;;30.50;97.40;;;;;;5048583;28;20830;-72
2022/08/14 10:38:57;;;;;;;8.10;7.30;;;30.60;98.00;;;;;;5050843;28;20451;-73
2022/08/14 10:41:35;;;;;;;7.53;6.80;;;30.50;97.30;;;;;;5050805;28;20470;-73
2022/08/14 10:44:09;;;;;;;7.57;6.97;;;30.60;97.60;;;;;;5051807;28;21416;-73
2022/08/14 10:46:41;;;;;;;7.57;6.97;;;30.50;97.60;;;;;;5051027;28;20580;-72
2022/08/14 10:49:17;;;;;;;11.00;6.47;;;30.50;98.00;;;;;;5051561;28;20440;-73
2022/08/14 10:51:58;;;;;;;7.57;6.73;;;30.60;97.60;;;;;;5050604;28;21088;-73
2022/08/14 10:54:31;;;;;;;7.43;6.73;;;31.00;97.80;;;;;;5051012;28;20513;-72
2022/08/14 10:56:58;;;;;;;6.10;5.50;;;31.20;96.80;;;;;;5050978;28;20451;-72
2022/08/14 10:59:26;;;;;;;7.00;6.40;;;31.10;96.00;;;;;;5050341;28;20461;-71
2022/08/14 11:01:55;;;;;;;8.40;6.37;;;31.00;96.10;;;;;;5050956;28;20464;-71
2022/08/14 11:04:27;;;;;;;6.13;5.63;;;30.90;96.10;;;;;;5050788;28;20858;-71
2022/08/14 11:06:54;;;;;;;7.70;5.90;;;30.80;95.70;;;;;;5051006;28;20543;-72
2022/08/14 11:09:21;;;;;;;6.63;5.90;;;30.90;95.40;;;;;;5050927;28;21011;-73
2022/08/14 11:11:54;;;;;;;7.65;6.50;;;30.80;95.30;;;;;;5049336;28;20643;-72
2022/08/14 11:14:20;;;;;;;8.43;6.20;;;30.70;96.10;;;;;;5050644;28;20521;-72
2022/08/14 11:16:50;;;;;;;6.57;6.07;;;30.90;96.20;;;;;;5051742;28;20247;-73
2022/08/14 11:19:19;;;;;;;7.15;6.45;;;30.90;96.30;;;;;;5050703;28;20844;-72
2022/08/14 11:21:50;;;;;;;7.03;6.30;;;30.90;96.30;;;;;;5049985;28;20308;-73
2022/08/14 11:24:21;;;;;;;6.67;6.17;;;30.90;95.50;;;;;;5050871;28;20468;-73
2022/08/14 11:26:50;;;;;;;5.77;5.27;;;31.00;96.40;;;;;;5050876;28;20513;-73
2022/08/14 11:29:18;;;;;;;5.87;5.37;;;31.20;95.50;;;;;;5050566;28;20480;-72
2022/08/14 11:31:45;;;;;;;6.30;5.80;;;31.30;94.90;;;;;;5050280;28;21839;-73
2022/08/14 11:34:14;;;;;;;9.23;6.47;;;31.10;95.30;;;;;;5050518;28;20542;-73
2022/08/14 11:36:42;;;;;;;7.47;6.67;;;31.20;95.00;;;;;;5049689;28;20978;-73
2022/08/14 11:39:17;;;;;;;10.77;6.00;;;31.30;95.30;;;;;;5050927;28;20449;-73
2022/08/14 11:41:45;;;;;;;6.93;6.33;;;30.90;94.80;;;;;;5050074;28;20229;-72
2022/08/14 11:44:11;;;;;;;6.43;5.90;;;30.60;95.30;;;;;;5050328;28;20827;-73
2022/08/14 11:46:40;;;;;;;6.70;6.10;;;30.50;96.00;;;;;;5050140;28;20460;-72
2022/08/14 11:49:08;;;;;;;6.68;6.00;;;30.50;95.00;;;;;;5049790;28;21017;-72
2022/08/14 11:51:36;;;;;;;6.60;6.10;;;30.60;95.50;;;;;;5049876;28;20235;-72
2022/08/14 11:54:05;;;;;;;5.70;5.30;;;31.00;95.90;;;;;;5050912;28;20453;-72
2022/08/14 11:56:35;;;;;;;5.47;5.10;;;31.40;94.20;;;;;;5050164;28;20458;-72
2022/08/14 11:59:01;;;;;;;6.87;6.27;;;31.80;93.80;;;;;;5050256;28;20971;-72
2022/08/14 12:01:30;;;;;;;7.63;5.93;;;32.10;93.30;;;;;;5049779;28;20534;-73
2022/08/14 12:04:08;;;;;;;5.63;5.23;;;32.10;93.30;;;;;;5049454;28;20460;-73
2022/08/14 12:06:47;;;;;;;7.93;6.23;;;32.00;93.10;;;;;;5050130;28;20457;-72
2022/08/14 12:09:14;;;;;;;6.30;5.70;;;31.80;92.50;;;;;;5050271;28;20552;-74
2022/08/14 12:11:42;;;;;;;5.50;4.90;;;31.80;92.80;;;;;;5048869;28;20439;-73
2022/08/14 12:14:09;;;;;;;5.43;5.03;;;32.00;92.40;;;;;;5051185;28;20213;-73
2022/08/14 12:16:36;;;;;;;5.25;4.85;;;32.20;91.90;;;;;;5049631;28;20464;-73
2022/08/14 12:19:04;;;;;;;4.80;4.20;;;32.30;91.70;;;;;;5050294;28;20206;-74
2022/08/14 12:21:31;;;;;;;4.57;4.27;;;32.50;90.80;;;;;;5049028;28;20949;-73
2022/08/14 12:24:04;;;;;;;5.30;4.80;;;32.40;90.80;;;;;;5049404;28;20445;-73
2022/08/14 12:26:31;;;;;;;7.70;4.67;;;32.40;91.20;;;;;;5049353;28;20511;-72
2022/08/14 12:29:07;;;;;;;7.53;5.30;;;32.60;90.90;;;;;;5049891;28;20977;-73
2022/08/14 12:31:34;;;;;;;4.93;4.60;;;32.70;90.80;;;;;;5049276;28;20473;-74
2022/08/14 12:34:03;;;;;;;5.27;4.77;;;32.60;90.50;;;;;;5049227;28;20518;-73
2022/08/14 12:36:30;;;;;;;5.37;4.97;;;32.30;90.80;;;;;;5049480;28;20460;-73
2022/08/14 12:38:57;;;;;;;5.83;5.33;;;32.20;90.70;;;;;;5049187;28;20467;-73
2022/08/14 12:41:29;;;;;;;8.45;5.20;;;32.10;90.60;;;;;;5047367;28;20936;-73
2022/08/14 12:43:58;;;;;;;6.20;5.57;;;32.10;90.50;;;;;;5049430;28;20281;-73
2022/08/14 12:46:27;;;;;;;6.80;4.83;;;31.70;90.50;;;;;;5048853;28;20883;-73
2022/08/14 12:48:54;;;;;;;526.30;403.92;;;31.30;90.80;;;;;;5049059;28;20444;-73
2022/08/14 12:51:24;;;;;;;24.88;22.33;;;31.10;91.70;;;;;;5048124;28;20870;-73
2022/08/14 12:53:52;;;;;;;5.15;4.65;;;31.30;91.60;;;;;;5049176;28;20764;-73
2022/08/14 12:56:23;;;;;;;4.70;4.40;;;31.80;90.90;;;;;;5049859;28;20206;-73
2022/08/14 12:58:53;;;;;;;3.90;3.60;;;32.10;90.10;;;;;;5048960;28;20483;-76
2022/08/14 13:01:22;;;;;;;4.72;3.90;;;32.10;90.00;;;;;;5047301;28;20943;-73